Time;durP1;ratioP1;P1;durP2;ratioP2;P2;SDS_P1;SDS_P2;PMS_P1;PMS_P2;Temp;Humidity;BMP_temperature;BMP_pressure;BME280_temperature;BME280_humidity;BME280_pressure;Samples;Min_cycle;Max_cycle;Signal;HPM_P1;HPM_P2
2023/01/14 00:02:29;;;;;;;10.90;3.27;;;10.20;98.70;;;;;;4973926;28;20451;-86
2023/01/14 00:05:10;;;;;;;13.30;2.87;;;10.30;98.70;;;;;;4969168;28;20613;-86
2023/01/14 00:07:44;;;;;;;11.57;3.37;;;10.30;98.50;;;;;;4985238;28;20474;-87
2023/01/14 00:10:11;;;;;;;11.57;3.50;;;10.30;98.50;;;;;;4988575;28;20872;-87
2023/01/14 00:12:38;;;;;;;10.47;2.80;;;10.30;98.20;;;;;;4976540;28;20462;-88
2023/01/14 00:15:05;;;;;;;11.83;4.40;;;10.20;98.20;;;;;;4976772;28;20462;-86
2023/01/14 00:17:33;;;;;;;15.37;3.40;;;10.30;98.60;;;;;;4979030;28;20616;-89
2023/01/14 00:20:00;;;;;;;10.20;3.20;;;10.20;98.20;;;;;;4986694;28;20534;-89
2023/01/14 00:22:30;;;;;;;15.07;3.13;;;10.20;98.30;;;;;;4979714;28;20490;-92
2023/01/14 00:24:57;;;;;;;10.10;3.47;;;10.30;98.30;;;;;;4975288;28;20467;-89
2023/01/14 00:27:24;;;;;;;13.00;3.67;;;10.20;98.30;;;;;;4956342;28;20471;-88
2023/01/14 00:29:51;;;;;;;16.70;3.87;;;10.10;98.40;;;;;;4970805;28;20483;-89
2023/01/14 00:32:41;;;;;;;13.13;3.50;;;10.10;98.50;;;;;;4973095;28;20462;-91
2023/01/14 00:35:17;;;;;;;10.13;3.00;;;10.00;98.60;;;;;;4945348;28;20465;-90
2023/01/14 00:38:00;;;;;;;13.30;3.50;;;10.10;98.60;;;;;;4948917;28;20479;-87
2023/01/14 00:40:27;;;;;;;16.80;3.57;;;10.00;98.60;;;;;;4983575;28;20541;-88
2023/01/14 00:42:58;;;;;;;13.00;2.70;;;10.00;98.70;;;;;;4984676;28;21198;-88
2023/01/14 00:45:34;;;;;;;9.23;2.90;;;10.00;98.70;;;;;;4970043;28;21039;-87
2023/01/14 00:48:09;;;;;;;12.03;3.47;;;10.10;98.60;;;;;;4984452;28;20478;-89
2023/01/14 00:50:41;;;;;;;11.70;3.97;;;10.10;98.40;;;;;;4967811;28;20491;-88
2023/01/14 00:53:25;;;;;;;8.80;2.73;;;10.00;98.50;;;;;;4970680;28;20909;-86
2023/01/14 00:55:52;;;;;;;7.40;3.30;;;9.90;99.30;;;;;;4972794;28;20467;-86
2023/01/14 00:58:19;;;;;;;8.70;2.90;;;10.20;98.80;;;;;;4972808;28;20482;-89
2023/01/14 01:00:46;;;;;;;8.70;3.10;;;10.30;98.20;;;;;;4970924;28;20463;-85
2023/01/14 01:03:13;;;;;;;8.10;2.47;;;10.30;98.30;;;;;;4966831;28;20459;-86
2023/01/14 01:05:45;;;;;;;12.27;3.80;;;10.30;98.00;;;;;;4968978;28;20942;-86
2023/01/14 01:08:14;;;;;;;10.53;2.83;;;10.20;98.10;;;;;;4984947;28;20483;-85
2023/01/14 01:10:43;;;;;;;10.03;3.87;;;10.00;98.30;;;;;;4968266;28;20479;-88
2023/01/14 01:13:11;;;;;;;9.20;3.60;;;10.00;98.60;;;;;;4982919;28;20451;-87
2023/01/14 01:15:39;;;;;;;9.90;2.80;;;10.10;98.80;;;;;;4976271;28;20471;-89
2023/01/14 01:18:07;;;;;;;13.60;3.33;;;10.00;98.70;;;;;;4960181;28;21134;-87
2023/01/14 01:20:34;;;;;;;10.80;2.90;;;10.40;98.30;;;;;;4990691;28;20858;-91
2023/01/14 01:23:02;;;;;;;12.53;3.27;;;10.60;97.60;;;;;;4993189;28;20473;-87
2023/01/14 01:25:29;;;;;;;9.43;2.23;;;10.50;97.50;;;;;;4978112;28;20521;-89
2023/01/14 01:27:56;;;;;;;10.03;2.90;;;10.50;97.70;;;;;;4992401;28;20471;-91
2023/01/14 01:30:26;;;;;;;10.70;2.73;;;10.60;97.20;;;;;;4992174;28;21012;-89
2023/01/14 01:32:53;;;;;;;12.33;3.03;;;10.60;97.30;;;;;;4992089;28;20455;-89
2023/01/14 01:35:21;;;;;;;11.40;2.93;;;10.40;97.20;;;;;;4987980;28;20467;-89
2023/01/14 01:37:49;;;;;;;10.40;2.77;;;10.30;97.50;;;;;;4996805;28;20501;-85
2023/01/14 01:40:16;;;;;;;19.70;4.90;;;10.50;97.50;;;;;;4993685;28;20524;-90
2023/01/14 01:42:54;;;;;;;13.17;3.77;;;10.40;97.10;;;;;;4994850;28;20482;-88
2023/01/14 01:45:46;;;;;;;17.67;5.63;;;10.20;97.40;;;;;;4980456;28;20582;-87
2023/01/14 01:48:22;;;;;;;10.50;3.20;;;10.10;97.90;;;;;;4980466;28;20490;-90
2023/01/14 01:51:12;;;;;;;15.83;4.00;;;10.20;98.00;;;;;;4976993;28;20478;-88
2023/01/14 01:53:43;;;;;;;17.87;4.00;;;10.70;97.40;;;;;;4994758;28;20444;-89
2023/01/14 01:56:18;;;;;;;11.70;2.93;;;10.60;97.00;;;;;;4982864;28;20450;-91
2023/01/14 01:58:46;;;;;;;18.00;3.50;;;10.80;96.60;;;;;;5007621;28;20448;-89
2023/01/14 02:01:14;;;;;;;13.50;3.10;;;10.40;96.60;;;;;;4994638;28;20491;-89
2023/01/14 02:03:44;;;;;;;14.17;3.30;;;10.20;97.20;;;;;;5010854;28;20456;-90
2023/01/14 02:06:12;;;;;;;14.47;2.77;;;10.20;97.60;;;;;;5007674;28;20587;-88
2023/01/14 02:08:44;;;;;;;12.40;3.20;;;10.00;97.70;;;;;;4988917;28;20470;-90
2023/01/14 02:11:29;;;;;;;9.30;2.60;;;10.00;97.90;;;;;;4971587;28;20475;-89
2023/01/14 02:13:59;;;;;;;8.27;3.30;;;10.00;97.90;;;;;;4986519;28;20455;-88
2023/01/14 02:16:45;;;;;;;12.97;2.77;;;10.10;98.00;;;;;;4981038;28;20891;-87
2023/01/14 02:19:38;;;;;;;9.83;2.53;;;10.50;97.50;;;;;;4985343;28;20464;-88
2023/01/14 02:22:39;;;;;;;7.17;3.00;;;10.60;96.80;;;;;;4991849;28;20460;-88
2023/01/14 02:25:38;;;;;;;10.53;2.83;;;10.60;96.60;;;;;;4981882;28;20534;-90
2023/01/14 02:28:23;;;;;;;11.47;2.57;;;10.30;96.70;;;;;;4981824;28;20497;-85
2023/01/14 02:31:04;;;;;;;10.47;2.53;;;10.50;96.90;;;;;;4978084;28;20494;-86
2023/01/14 02:33:50;;;;;;;8.03;2.50;;;10.40;96.80;;;;;;4976880;28;20447;-88
2023/01/14 02:36:34;;;;;;;14.40;2.60;;;10.10;97.10;;;;;;4983860;28;20574;-86
2023/01/14 02:39:06;;;;;;;10.30;3.10;;;10.30;97.00;;;;;;4986538;28;20491;-85
2023/01/14 02:44:38;;;;;;;8.77;2.73;;;10.30;97.40;;;;;;5000591;28;20479;-90
2023/01/14 02:47:13;;;;;;;13.60;3.23;;;10.50;96.70;;;;;;4993816;28;20498;-87
2023/01/14 02:49:43;;;;;;;9.10;2.07;;;10.20;96.70;;;;;;4983422;28;20462;-88
2023/01/14 02:52:13;;;;;;;15.70;3.50;;;10.20;97.20;;;;;;4991629;28;20483;-85
2023/01/14 02:54:40;;;;;;;8.60;3.73;;;10.20;97.30;;;;;;4992965;28;20571;-85
2023/01/14 02:57:17;;;;;;;8.93;2.50;;;10.20;97.00;;;;;;4990157;28;20475;-89
2023/01/14 02:59:58;;;;;;;8.70;3.17;;;10.00;97.10;;;;;;4991887;28;20474;-86
2023/01/14 03:02:42;;;;;;;5.43;1.97;;;9.90;98.00;;;;;;4982912;28;20474;-87
2023/01/14 03:05:39;;;;;;;11.10;2.90;;;9.80;98.20;;;;;;4995864;28;20550;-88
2023/01/14 03:08:21;;;;;;;10.27;2.77;;;10.20;97.60;;;;;;4992037;28;20534;-89
2023/01/14 03:10:59;;;;;;;9.70;2.40;;;10.50;96.70;;;;;;4994839;28;20482;-89
2023/01/14 03:13:32;;;;;;;9.57;2.60;;;10.60;96.30;;;;;;4978332;28;20442;-89
2023/01/14 03:16:06;;;;;;;10.43;3.00;;;10.50;96.20;;;;;;4980641;28;20490;-87
2023/01/14 03:18:57;;;;;;;12.10;3.20;;;10.60;96.00;;;;;;4955902;28;20791;-86
2023/01/14 03:21:29;;;;;;;12.47;2.90;;;10.30;96.20;;;;;;4990505;28;20518;-85
2023/01/14 03:24:02;;;;;;;6.87;2.00;;;10.40;96.40;;;;;;4973583;28;20476;-85
2023/01/14 03:30:39;;;;;;;15.80;3.00;;;10.20;96.40;;;;;;4974516;28;20478;-87
2023/01/14 03:33:16;;;;;;;10.73;2.70;;;10.20;96.70;;;;;;4990478;28;20638;-87
2023/01/14 03:35:46;;;;;;;9.17;2.63;;;10.00;96.70;;;;;;4987524;28;20499;-88
2023/01/14 03:38:20;;;;;;;13.77;3.67;;;10.00;97.00;;;;;;4997470;28;20487;-90
2023/01/14 03:40:50;;;;;;;11.03;2.73;;;10.00;97.00;;;;;;4975473;28;20482;-88
2023/01/14 03:43:42;;;;;;;7.87;2.80;;;10.00;97.00;;;;;;4979713;28;20470;-86
2023/01/14 03:46:10;;;;;;;7.10;1.90;;;9.90;97.70;;;;;;4983163;28;20525;-87
2023/01/14 03:48:37;;;;;;;12.63;2.33;;;10.00;97.20;;;;;;4984151;28;20463;-88
2023/01/14 03:51:32;;;;;;;10.63;1.90;;;10.00;97.00;;;;;;4995589;28;20694;-87
2023/01/14 03:54:21;;;;;;;5.53;3.50;;;9.90;97.60;;;;;;5005965;28;20448;-88
2023/01/14 03:57:18;;;;;;;11.93;3.43;;;9.90;97.70;;;;;;4984828;28;20487;-87
2023/01/14 04:00:04;;;;;;;15.30;3.00;;;9.90;97.70;;;;;;4985537;28;20501;-86
2023/01/14 04:02:32;;;;;;;18.70;3.53;;;9.90;97.80;;;;;;4969033;28;20460;-86
2023/01/14 04:05:00;;;;;;;8.40;2.40;;;9.90;97.80;;;;;;4983337;28;20483;-88
2023/01/14 04:07:29;;;;;;;15.87;2.80;;;9.80;97.70;;;;;;4984667;28;20475;-89
2023/01/14 04:09:56;;;;;;;13.03;2.87;;;9.70;97.90;;;;;;4982576;28;20964;-87
2023/01/14 04:12:23;;;;;;;8.47;2.47;;;9.60;98.10;;;;;;4982868;28;20522;-87
2023/01/14 04:17:37;;;;;;;9.47;2.20;;;9.60;98.20;;;;;;4968301;28;20478;-88
2023/01/14 04:20:06;;;;;;;18.17;2.77;;;9.60;98.40;;;;;;4986570;28;20546;-87
2023/01/14 04:22:33;;;;;;;11.10;2.20;;;9.60;98.40;;;;;;4986120;28;20455;-87
2023/01/14 04:25:00;;;;;;;8.20;2.77;;;9.70;98.30;;;;;;4968157;28;20519;-87
2023/01/14 04:27:27;;;;;;;8.90;2.00;;;9.60;98.50;;;;;;4971792;28;21239;-85
2023/01/14 04:29:53;;;;;;;12.50;2.90;;;9.60;98.30;;;;;;4990854;28;20455;-88
2023/01/14 04:32:20;;;;;;;9.43;2.77;;;9.60;98.30;;;;;;5002449;28;20486;-91
2023/01/14 04:34:47;;;;;;;10.90;2.67;;;9.60;98.40;;;;;;4986479;28;20462;-88
2023/01/14 04:37:14;;;;;;;6.13;2.50;;;9.60;98.50;;;;;;5000538;28;20462;-90
2023/01/14 04:39:40;;;;;;;8.20;2.30;;;9.50;98.50;;;;;;4972540;28;20463;-88
2023/01/14 04:42:26;;;;;;;11.40;2.70;;;9.60;98.50;;;;;;4984332;28;20489;-90
2023/01/14 04:44:55;;;;;;;11.10;2.87;;;9.50;98.40;;;;;;4981686;28;20470;-86
2023/01/14 04:47:22;;;;;;;8.43;2.20;;;9.40;98.60;;;;;;4968498;28;20545;-88
2023/01/14 04:49:49;;;;;;;9.90;2.30;;;9.20;99.00;;;;;;4981128;28;20467;-85
2023/01/14 04:52:17;;;;;;;6.83;2.63;;;9.30;99.30;;;;;;4975790;28;20569;-87
2023/01/14 04:54:44;;;;;;;12.67;2.77;;;9.60;99.00;;;;;;4966369;28;20459;-86
2023/01/14 04:57:11;;;;;;;6.37;2.17;;;9.70;98.50;;;;;;4980541;28;20471;-86
2023/01/14 04:59:38;;;;;;;7.67;2.70;;;9.60;98.50;;;;;;4981815;28;20901;-90
2023/01/14 05:02:04;;;;;;;8.20;2.10;;;9.50;98.50;;;;;;4981476;28;20478;-87
2023/01/14 05:04:31;;;;;;;8.70;3.10;;;9.40;98.90;;;;;;4983074;28;20482;-88
2023/01/14 05:07:01;;;;;;;5.33;2.43;;;9.40;99.10;;;;;;4982394;28;20941;-87
2023/01/14 05:09:28;;;;;;;12.77;2.33;;;9.50;99.00;;;;;;4982497;28;20467;-89
2023/01/14 05:11:55;;;;;;;6.30;2.37;;;9.60;98.80;;;;;;4993201;28;20547;-88
2023/01/14 05:14:22;;;;;;;8.77;2.07;;;9.60;98.80;;;;;;4984701;28;20557;-89
2023/01/14 05:16:48;;;;;;;11.50;2.97;;;9.50;99.20;;;;;;4983976;28;20494;-90
2023/01/14 05:19:15;;;;;;;5.93;1.90;;;9.40;99.50;;;;;;4967921;28;21768;-88
2023/01/14 05:21:42;;;;;;;8.30;2.37;;;9.30;99.80;;;;;;4984945;28;20467;-87
2023/01/14 05:24:11;;;;;;;7.83;1.67;;;9.20;99.90;;;;;;4978558;28;20454;-89
2023/01/14 05:26:41;;;;;;;8.07;2.17;;;9.10;99.90;;;;;;4965396;28;20506;-87
2023/01/14 05:29:08;;;;;;;10.10;3.00;;;9.10;99.90;;;;;;4963579;28;20459;-87
2023/01/14 05:31:50;;;;;;;;;;;;;;;;;;;;;
2023/01/14 05:34:26;;;;;;;9.97;3.37;;;9.10;99.90;;;;;;4982170;28;20472;-89
2023/01/14 05:36:54;;;;;;;11.43;1.83;;;9.10;99.90;;;;;;4967916;28;20560;-88
2023/01/14 05:39:21;;;;;;;5.33;1.97;;;9.00;99.90;;;;;;4980312;28;20473;-87
2023/01/14 05:47:18;;;;;;;6.73;2.67;;;9.30;99.50;;;;;;4977962;28;20486;-89
2023/01/14 05:49:45;;;;;;;9.80;2.20;;;9.10;99.90;;;;;;4979140;28;20472;-87
2023/01/14 05:52:12;;;;;;;5.80;1.83;;;9.30;99.70;;;;;;4978604;28;20502;-88
2023/01/14 05:54:38;;;;;;;8.70;2.40;;;9.40;99.40;;;;;;4963227;28;20558;-88
2023/01/14 05:57:11;;;;;;;22.80;3.40;;;9.40;99.40;;;;;;4962687;28;20510;-88
2023/01/14 05:59:38;;;;;;;7.90;2.23;;;9.30;99.50;;;;;;4980310;28;20548;-87
2023/01/14 06:07:38;;;;;;;10.13;3.07;;;9.30;99.90;;;;;;4978448;28;21504;-89
2023/01/14 06:10:05;;;;;;;11.77;2.60;;;9.30;99.90;;;;;;4976883;28;20528;-87
2023/01/14 06:12:57;;;;;;;7.93;2.83;;;9.30;99.90;;;;;;4964458;28;20479;-88
2023/01/14 06:15:25;;;;;;;12.03;2.77;;;9.30;99.90;;;;;;4977849;28;20506;-86
2023/01/14 06:17:58;;;;;;;9.10;2.30;;;9.20;99.90;;;;;;4981519;28;20522;-87
2023/01/14 06:20:25;;;;;;;4.13;1.83;;;9.30;99.90;;;;;;4980572;28;20463;-89
2023/01/14 06:22:55;;;;;;;11.23;2.33;;;9.40;99.90;;;;;;4978854;28;20471;-88
2023/01/14 06:25:22;;;;;;;11.17;3.20;;;9.30;99.90;;;;;;4965646;28;20490;-88
2023/01/14 06:27:48;;;;;;;7.50;2.07;;;9.20;99.90;;;;;;4977504;28;20486;-87
2023/01/14 06:30:15;;;;;;;5.60;1.90;;;9.40;99.90;;;;;;4967052;28;20482;-89
2023/01/14 06:32:42;;;;;;;8.70;2.80;;;9.50;99.50;;;;;;4964402;28;20488;-86
2023/01/14 06:35:09;;;;;;;8.30;2.50;;;9.60;99.20;;;;;;4966903;28;20458;-88
2023/01/14 06:37:35;;;;;;;6.53;2.50;;;9.60;99.10;;;;;;4983520;28;20565;-86
2023/01/14 06:40:02;;;;;;;9.50;2.60;;;9.50;99.10;;;;;;4969397;28;20467;-88
2023/01/14 06:42:30;;;;;;;5.83;2.37;;;9.60;99.00;;;;;;4987931;28;20467;-87
2023/01/14 06:44:59;;;;;;;9.77;2.60;;;9.50;99.10;;;;;;4983838;28;20591;-87
2023/01/14 06:47:25;;;;;;;9.20;1.90;;;9.50;99.00;;;;;;4983332;28;20488;-87
2023/01/14 06:49:52;;;;;;;5.80;2.00;;;9.50;99.20;;;;;;4966430;28;21015;-87
2023/01/14 06:52:21;;;;;;;9.63;2.07;;;9.50;98.90;;;;;;4983100;28;20479;-89
2023/01/14 06:54:47;;;;;;;12.10;2.57;;;9.50;98.90;;;;;;4972015;28;20483;-88
2023/01/14 06:57:14;;;;;;;3.73;2.10;;;9.50;98.70;;;;;;4965605;28;20509;-88
2023/01/14 06:59:41;;;;;;;8.43;2.17;;;9.60;98.70;;;;;;4966177;28;20532;-87
2023/01/14 07:02:11;;;;;;;10.57;2.63;;;9.70;98.50;;;;;;4965294;28;20475;-87
2023/01/14 07:04:38;;;;;;;10.80;3.10;;;9.60;98.70;;;;;;4964230;28;20507;-89
2023/01/14 07:07:05;;;;;;;6.93;2.37;;;9.60;98.70;;;;;;4963983;28;20497;-88
2023/01/14 07:09:32;;;;;;;6.37;1.80;;;9.60;99.20;;;;;;4979123;28;20466;-87
2023/01/14 07:11:59;;;;;;;5.00;1.60;;;9.50;99.40;;;;;;4965438;28;20537;-87
2023/01/14 07:14:25;;;;;;;8.93;3.37;;;9.50;99.80;;;;;;4967731;28;20471;-89
2023/01/14 07:16:52;;;;;;;7.57;3.47;;;9.50;99.50;;;;;;4965512;28;20592;-88
2023/01/14 07:19:19;;;;;;;7.23;2.00;;;9.60;99.40;;;;;;4968996;28;20454;-88
2023/01/14 07:21:45;;;;;;;10.40;1.80;;;9.60;99.50;;;;;;4968760;28;20470;-89
2023/01/14 07:24:12;;;;;;;7.57;1.83;;;9.70;99.40;;;;;;4969285;28;20468;-88
2023/01/14 07:26:39;;;;;;;6.70;2.53;;;9.70;99.50;;;;;;4969384;28;20486;-88
2023/01/14 07:29:06;;;;;;;10.60;2.47;;;9.70;99.40;;;;;;4968833;28;20477;-89
2023/01/14 07:31:46;;;;;;;11.70;2.00;;;9.70;99.60;;;;;;4968502;28;20559;-87
2023/01/14 07:34:13;;;;;;;4.83;1.63;;;9.60;99.80;;;;;;4971740;28;20467;-89
2023/01/14 07:36:40;;;;;;;7.10;2.60;;;9.60;99.90;;;;;;4986299;28;20499;-91
2023/01/14 07:39:08;;;;;;;11.10;2.20;;;9.50;99.90;;;;;;4982473;28;20443;-88
2023/01/14 07:41:35;;;;;;;13.03;2.47;;;9.60;99.90;;;;;;4981036;28;20472;-91
2023/01/14 07:44:04;;;;;;;12.20;2.37;;;9.60;99.90;;;;;;4982000;28;20455;-88
2023/01/14 07:46:31;;;;;;;8.70;2.87;;;9.60;99.90;;;;;;4971181;28;20530;-88
2023/01/14 07:48:57;;;;;;;13.07;3.50;;;9.50;99.90;;;;;;4983720;28;20505;-90
2023/01/14 07:51:24;;;;;;;9.63;2.50;;;9.50;99.90;;;;;;4970659;28;20469;-90
2023/01/14 07:53:51;;;;;;;6.80;1.97;;;9.50;99.90;;;;;;4982512;28;20797;-88
2023/01/14 07:56:18;;;;;;;5.57;2.07;;;9.50;99.90;;;;;;4979045;28;20550;-91
2023/01/14 07:58:48;;;;;;;7.37;2.20;;;9.40;99.90;;;;;;4985132;28;20451;-89
2023/01/14 08:01:14;;;;;;;13.43;2.33;;;9.20;99.90;;;;;;5006133;28;20447;-90
2023/01/14 08:03:41;;;;;;;7.43;2.27;;;9.10;99.90;;;;;;4988434;28;20454;-89
2023/01/14 08:06:08;;;;;;;8.97;2.57;;;9.00;99.90;;;;;;4995610;28;20517;-90
2023/01/14 08:08:35;;;;;;;6.43;2.83;;;9.00;99.90;;;;;;4992493;28;20614;-89
2023/01/14 08:11:03;;;;;;;14.33;3.40;;;9.10;99.90;;;;;;4989979;28;20555;-91
2023/01/14 08:13:31;;;;;;;8.00;2.60;;;9.20;99.90;;;;;;4973487;28;20502;-90
2023/01/14 08:16:00;;;;;;;9.53;3.73;;;9.10;99.90;;;;;;4969269;28;20466;-88
2023/01/14 08:18:34;;;;;;;9.00;2.67;;;9.30;99.90;;;;;;4982396;28;20468;-87
2023/01/14 08:21:23;;;;;;;6.07;2.80;;;9.30;99.90;;;;;;4968013;28;20486;-88
2023/01/14 08:23:51;;;;;;;8.23;2.30;;;9.20;99.90;;;;;;4973311;28;20454;-86
2023/01/14 08:26:19;;;;;;;3.87;1.70;;;9.30;99.90;;;;;;4987454;28;20461;-90
2023/01/14 08:28:47;;;;;;;13.20;2.80;;;9.20;99.90;;;;;;4989879;28;20448;-91
2023/01/14 08:31:16;;;;;;;13.30;3.33;;;9.10;99.90;;;;;;5004744;28;20517;-88
2023/01/14 08:33:45;;;;;;;6.70;2.77;;;9.30;99.90;;;;;;4990071;28;20452;-90
2023/01/14 08:36:21;;;;;;;5.17;1.80;;;9.20;99.90;;;;;;5005807;28;20443;-91
2023/01/14 08:38:54;;;;;;;12.77;2.40;;;9.30;99.90;;;;;;4989675;28;20450;-91
2023/01/14 08:41:23;;;;;;;6.13;2.13;;;9.40;99.90;;;;;;4973868;28;20494;-87
2023/01/14 08:43:51;;;;;;;7.93;1.87;;;9.50;99.90;;;;;;4967324;28;20463;-90
2023/01/14 08:46:25;;;;;;;6.17;1.63;;;9.60;99.90;;;;;;4986315;28;20480;-90
2023/01/14 08:48:53;;;;;;;5.70;1.90;;;9.60;99.90;;;;;;4989960;28;20468;-90
2023/01/14 08:51:20;;;;;;;4.27;1.67;;;9.60;99.90;;;;;;4976270;28;20478;-88
2023/01/14 08:53:50;;;;;;;4.73;1.20;;;9.70;99.90;;;;;;4966496;28;20483;-87
2023/01/14 08:56:17;;;;;;;2.67;1.30;;;9.80;99.90;;;;;;4982140;28;20546;-88
2023/01/14 08:58:44;;;;;;;3.33;1.30;;;9.80;99.90;;;;;;4969427;28;20904;-85
2023/01/14 09:01:14;;;;;;;3.80;1.50;;;9.90;99.90;;;;;;4970818;28;20870;-87
2023/01/14 09:03:42;;;;;;;4.60;1.23;;;10.00;99.90;;;;;;4969569;28;20562;-87
2023/01/14 09:06:11;;;;;;;3.70;1.23;;;10.00;99.90;;;;;;4952447;28;20464;-87
2023/01/14 09:17:19;;;;;;;0.87;0.83;;;10.10;99.90;;;;;;4982967;28;20487;-89
2023/01/14 09:19:58;;;;;;;0.70;0.60;;;10.10;99.90;;;;;;4970264;28;20455;-88
2023/01/14 09:22:34;;;;;;;0.80;0.80;;;10.10;99.90;;;;;;4982968;28;20510;-88
2023/01/14 09:25:01;;;;;;;1.57;0.90;;;10.10;99.90;;;;;;4973411;28;20593;-89
2023/01/14 09:27:30;;;;;;;2.20;0.87;;;10.10;99.90;;;;;;4972232;28;21113;-88
2023/01/14 09:29:57;;;;;;;1.53;0.60;;;10.10;99.90;;;;;;4986768;28;20491;-90
2023/01/14 09:32:24;;;;;;;2.97;0.90;;;10.20;99.90;;;;;;4986147;28;20868;-91
2023/01/14 09:34:52;;;;;;;1.23;0.60;;;10.30;99.90;;;;;;4984698;28;20479;-87
2023/01/14 09:37:21;;;;;;;1.17;0.70;;;10.30;99.90;;;;;;4984042;28;21920;-88
2023/01/14 09:39:49;;;;;;;1.60;0.60;;;10.30;99.90;;;;;;4972659;28;21007;-88
2023/01/14 09:42:25;;;;;;;2.23;1.30;;;10.20;99.90;;;;;;4988221;28;20459;-90
2023/01/14 09:44:58;;;;;;;1.73;0.70;;;10.30;99.90;;;;;;4989559;28;20482;-88
2023/01/14 09:47:25;;;;;;;1.63;0.60;;;10.30;99.90;;;;;;4978405;28;21798;-89
2023/01/14 09:49:53;;;;;;;1.07;0.90;;;10.30;99.90;;;;;;4975906;28;20462;-91
2023/01/14 09:52:57;;;;;;;1.80;0.80;;;10.40;99.90;;;;;;4991636;28;20487;-87
2023/01/14 09:55:39;;;;;;;2.73;0.90;;;10.40;99.90;;;;;;4995181;28;20554;-88
2023/01/14 09:58:29;;;;;;;1.53;0.70;;;10.50;99.90;;;;;;4989562;28;20490;-89
2023/01/14 10:02:17;;;;;;;3.80;1.07;;;10.40;99.90;;;;;;4948138;28;20454;-90
2023/01/14 10:05:18;;;;;;;1.50;0.70;;;10.50;99.90;;;;;;4974368;28;20993;-88
2023/01/14 10:07:46;;;;;;;1.17;0.70;;;10.60;99.90;;;;;;4977243;28;20498;-90
2023/01/14 10:10:23;;;;;;;0.70;0.70;;;10.50;99.90;;;;;;4999251;28;20470;-91
2023/01/14 10:12:52;;;;;;;1.93;1.20;;;10.60;99.90;;;;;;5005180;28;20478;-89
2023/01/14 10:15:23;;;;;;;0.80;0.80;;;10.60;99.90;;;;;;4991498;28;20554;-90
2023/01/14 10:17:59;;;;;;;1.50;0.80;;;10.60;99.90;;;;;;4989625;28;20483;-89
2023/01/14 10:20:34;;;;;;;0.70;0.60;;;10.70;99.90;;;;;;4991292;28;20486;-90
2023/01/14 10:23:12;;;;;;;1.70;1.00;;;10.60;99.90;;;;;;4976480;28;20462;-89
2023/01/14 10:25:48;;;;;;;0.87;0.67;;;10.50;99.90;;;;;;4993490;28;20518;-89
2023/01/14 10:28:18;;;;;;;2.77;1.33;;;10.70;99.90;;;;;;4976061;28;20983;-87
2023/01/14 10:30:48;;;;;;;2.50;1.17;;;10.70;99.90;;;;;;4976414;28;20463;-89
2023/01/14 10:33:17;;;;;;;0.70;0.70;;;10.70;99.90;;;;;;4971053;28;20584;-88
2023/01/14 10:35:48;;;;;;;1.20;0.97;;;10.70;99.90;;;;;;4988242;28;20502;-88
2023/01/14 10:38:19;;;;;;;2.27;1.13;;;10.80;99.90;;;;;;4971716;28;20541;-90
2023/01/14 10:40:50;;;;;;;1.77;1.00;;;10.80;99.90;;;;;;4978234;28;20472;-87
2023/01/14 10:43:33;;;;;;;2.20;1.10;;;10.80;99.90;;;;;;4990577;28;20973;-88
2023/01/14 10:46:00;;;;;;;1.90;0.90;;;10.90;99.90;;;;;;4989603;28;20462;-89
2023/01/14 10:48:44;;;;;;;2.23;0.90;;;10.90;99.90;;;;;;4985960;28;20572;-86
2023/01/14 10:51:35;;;;;;;1.53;1.10;;;10.90;99.90;;;;;;4973167;28;20594;-86
2023/01/14 10:54:24;;;;;;;2.30;0.50;;;10.90;99.90;;;;;;4990593;28;20547;-90
2023/01/14 10:57:11;;;;;;;2.80;1.00;;;10.80;99.90;;;;;;4989776;28;20459;-86
2023/01/14 10:59:44;;;;;;;12.57;2.00;;;10.80;99.90;;;;;;4988295;28;20954;-88
2023/01/14 11:02:34;;;;;;;2.80;1.40;;;10.70;99.90;;;;;;4973446;28;20459;-91
2023/01/14 11:05:21;;;;;;;2.60;1.27;;;10.70;99.90;;;;;;4985879;28;20455;-88
2023/01/14 11:07:50;;;;;;;3.00;0.80;;;10.80;99.90;;;;;;4973903;28;20503;-88
2023/01/14 11:10:23;;;;;;;1.73;1.03;;;10.90;99.90;;;;;;4971677;28;20477;-88
2023/01/14 11:13:23;;;;;;;2.60;1.40;;;10.70;99.90;;;;;;4976636;28;21036;-91
2023/01/14 11:15:51;;;;;;;3.33;1.00;;;10.80;99.90;;;;;;4990934;28;20467;-89
2023/01/14 11:18:32;;;;;;;2.63;0.67;;;10.90;99.90;;;;;;4973478;28;20633;-89
2023/01/14 11:21:16;;;;;;;2.17;0.70;;;10.90;99.90;;;;;;4970042;28;20482;-88
2023/01/14 11:23:45;;;;;;;2.50;1.13;;;10.90;99.90;;;;;;4974724;28;20462;-89
2023/01/14 11:26:36;;;;;;;2.67;0.73;;;10.90;99.90;;;;;;4988570;28;20942;-88
2023/01/14 11:29:19;;;;;;;0.47;0.47;;;11.00;99.90;;;;;;4986863;28;21772;-86
2023/01/14 11:31:48;;;;;;;1.53;0.87;;;10.80;99.90;;;;;;4975789;28;20538;-87
2023/01/14 11:34:30;;;;;;;2.97;0.90;;;10.90;99.90;;;;;;4990212;28;20478;-86
2023/01/14 11:37:09;;;;;;;3.70;1.03;;;10.90;99.90;;;;;;4984440;28;20494;-92
2023/01/14 11:39:39;;;;;;;2.37;0.90;;;10.80;99.90;;;;;;4988196;28;20544;-87
2023/01/14 11:42:34;;;;;;;2.30;1.33;;;10.80;99.90;;;;;;4969621;28;20547;-88
2023/01/14 11:45:10;;;;;;;0.93;0.80;;;10.80;99.90;;;;;;4989113;28;20451;-90
2023/01/14 11:47:46;;;;;;;1.40;0.70;;;10.90;99.90;;;;;;4983979;28;20482;-90
2023/01/14 11:50:18;;;;;;;3.60;1.57;;;10.90;99.90;;;;;;5002338;28;20472;-90
2023/01/14 11:53:05;;;;;;;1.07;0.50;;;11.00;99.90;;;;;;5000970;28;20491;-91
2023/01/14 11:55:38;;;;;;;1.00;0.70;;;10.90;99.90;;;;;;5005457;28;20536;-92
2023/01/14 11:58:19;;;;;;;1.97;0.90;;;10.90;99.90;;;;;;4990431;28;20459;-91
2023/01/14 12:00:54;;;;;;;2.27;0.80;;;10.90;99.90;;;;;;5007291;28;20522;-92
2023/01/14 12:03:46;;;;;;;6.83;1.17;;;11.00;99.90;;;;;;5005650;28;20443;-90
2023/01/14 12:06:37;;;;;;;1.53;1.20;;;10.90;99.90;;;;;;5001768;28;20457;-90
2023/01/14 12:10:12;;;;;;;1.80;0.93;;;10.90;99.90;;;;;;4994500;28;20459;-89
2023/01/14 12:19:25;;;;;;;1.10;1.00;;;11.00;99.90;;;;;;4989336;28;20459;-88
2023/01/14 12:22:21;;;;;;;1.93;1.20;;;11.00;99.90;;;;;;5001088;28;20454;-90
2023/01/14 12:28:08;;;;;;;5.93;1.10;;;11.10;99.90;;;;;;5109199;23;20501;-89
2023/01/14 12:30:51;;;;;;;2.10;0.60;;;10.90;99.90;;;;;;4987294;28;20700;-91
2023/01/14 12:33:36;;;;;;;2.47;0.80;;;11.00;99.90;;;;;;4983192;28;20601;-90
2023/01/14 12:36:14;;;;;;;1.10;0.63;;;11.00;99.90;;;;;;4976013;28;21162;-87
2023/01/14 12:45:57;;;;;;;0.90;0.90;;;11.00;99.90;;;;;;4969835;28;20471;-88
2023/01/14 12:48:33;;;;;;;4.90;1.07;;;11.00;99.90;;;;;;4982194;28;20468;-89
2023/01/14 12:51:22;;;;;;;1.07;0.80;;;11.10;99.90;;;;;;4970111;28;20474;-88
2023/01/14 12:54:14;;;;;;;3.17;1.10;;;11.10;99.90;;;;;;4981206;28;20559;-88
2023/01/14 12:56:57;;;;;;;1.10;0.83;;;11.10;99.90;;;;;;4971401;28;20487;-89
2023/01/14 12:59:45;;;;;;;0.80;0.80;;;11.00;99.90;;;;;;4963195;28;20551;-87
2023/01/14 13:02:36;;;;;;;2.03;1.07;;;11.10;99.90;;;;;;4980866;28;20575;-89
2023/01/14 13:05:27;;;;;;;0.60;0.60;;;11.10;99.90;;;;;;4984541;28;21113;-89
2023/01/14 13:08:04;;;;;;;1.80;0.70;;;11.10;99.90;;;;;;4979564;28;21045;-88
2023/01/14 13:10:43;;;;;;;1.00;0.70;;;11.20;99.90;;;;;;4978157;28;20562;-89
2023/01/14 13:13:28;;;;;;;2.83;0.60;;;11.30;99.90;;;;;;4984907;28;20492;-86
2023/01/14 13:16:06;;;;;;;3.40;0.70;;;11.20;99.90;;;;;;4991533;28;20459;-87
2023/01/14 13:19:24;;;;;;;1.17;1.07;;;11.30;99.90;;;;;;4600435;27;15790581;-90
2023/01/14 13:22:11;;;;;;;0.83;0.70;;;11.40;99.90;;;;;;5140032;27;20329;-89
2023/01/14 13:25:17;;;;;;;1.50;0.73;;;11.30;99.90;;;;;;5145554;27;20550;-90
2023/01/14 13:28:15;;;;;;;1.47;0.63;;;11.30;99.90;;;;;;5130592;27;20534;-90
2023/01/14 13:30:59;;;;;;;0.70;0.70;;;11.40;99.90;;;;;;5125280;27;20453;-93
2023/01/14 13:33:37;;;;;;;3.07;0.70;;;11.50;99.90;;;;;;5132376;27;20433;-93
2023/01/14 13:36:20;;;;;;;0.93;0.60;;;11.50;99.90;;;;;;5127532;27;20522;-87
2023/01/14 13:39:05;;;;;;;0.93;0.70;;;11.50;99.90;;;;;;5129593;27;20496;-89
2023/01/14 13:41:38;;;;;;;1.60;0.97;;;11.40;99.90;;;;;;5134621;27;20464;-91
2023/01/14 13:44:35;;;;;;;1.83;0.90;;;11.50;99.90;;;;;;5130157;27;20440;-92
2023/01/14 13:47:27;;;;;;;2.67;0.90;;;11.50;99.90;;;;;;5146688;27;21000;-88
2023/01/14 13:50:32;;;;;;;1.30;1.13;;;11.50;99.90;;;;;;5141250;27;20468;-90
2023/01/14 13:53:18;;;;;;;2.17;1.00;;;11.50;99.90;;;;;;5127981;27;20479;-92
2023/01/14 13:55:55;;;;;;;1.03;0.93;;;11.60;99.90;;;;;;5126465;27;20440;-89
2023/01/14 13:58:55;;;;;;;0.97;0.90;;;11.70;99.90;;;;;;5123808;27;20491;-87
2023/01/14 14:01:48;;;;;;;1.47;0.70;;;11.60;99.90;;;;;;5122172;27;20581;-89
2023/01/14 14:04:58;;;;;;;5.20;0.90;;;11.80;99.90;;;;;;5114269;27;20460;-87
2023/01/14 14:07:45;;;;;;;0.60;0.50;;;11.70;99.90;;;;;;5059856;27;20499;-90
2023/01/14 14:10:16;;;;;;;1.73;0.80;;;11.70;99.90;;;;;;5112998;27;20458;-87
2023/01/14 14:15:56;;;;;;;1.20;0.97;;;11.70;99.90;;;;;;5132257;27;20483;-89
2023/01/14 14:18:55;;;;;;;1.03;0.90;;;11.80;99.90;;;;;;5113982;27;20626;-87